Ek0 3 — SVAR6 — position and weather

sailwx.info

Track history (hours):
 
Tides and Currents Weather Stations Pressure Air Temp Water Temp Dewpoint Dewpoint Depression Visibility Wind Speed Wind Dir Waves Ship Positions

Ek0 3

Last reported at 2017-Nov-19 11:30 UTC. Time now 2017-Nov-21 21:16 UTC.
Position N 37°40' E 023°42'.

Length 88 m; draft 5.6 m.

Type: Ship. MMSI: 240913000.

Date/timePositionNaut miles runAvg speedWind from/ knotsBaromVisibWave heightAir tempDewpointWater temp
2017-Nov-19 11:30N 37°40' E 023°42'610.3
2017-Nov-19 10:56N 37°46' E 023°39'510.1
2017-Nov-19 10:29N 37°50' E 023°37'6 9.0
2017-Nov-19 09:50N 37°56' E 023°36'2 7.3
2017-Nov-19 09:30N 37°57' E 023°34'4 8.1
2017-Nov-19 08:59N 38°01' E 023°33'0 0.3
2017-Nov-19 08:28N 38°01' E 023°32'0 0.2
2017-Nov-19 07:58N 38°01' E 023°32'0 0.0
2017-Nov-19 07:28N 38°01' E 023°32'0 0.0
2017-Nov-19 06:46N 38°01' E 023°32'0 0.0
2017-Nov-19 06:25N 38°01' E 023°32'0 0.0
2017-Nov-19 05:52N 38°01' E 023°32'0 0.0
2017-Nov-19 05:28N 38°01' E 023°32'0 0.0
2017-Nov-19 04:49N 38°01' E 023°32'0 0.0
2017-Nov-19 04:28N 38°01' E 023°32'0 0.0
2017-Nov-19 03:58N 38°01' E 023°32'0 0.0
2017-Nov-19 02:49N 38°01' E 023°32'0 0.0
2017-Nov-19 01:49N 38°01' E 023°32'0 0.0
2017-Nov-19 01:25N 38°01' E 023°32'0 0.0
2017-Nov-19 00:01N 38°01' E 023°32'0 0.0
2017-Nov-18 23:52N 38°01' E 023°32'0 0.0
2017-Nov-18 23:13N 38°01' E 023°32'0 0.0
2017-Nov-18 22:28N 38°01' E 023°32'0 0.0
2017-Nov-18 21:58N 38°01' E 023°32'0 0.0
2017-Nov-18 21:28N 38°01' E 023°32'0 0.0
2017-Nov-18 20:52N 38°01' E 023°32'0 0.0
2017-Nov-18 20:19N 38°01' E 023°32'0 0.0
2017-Nov-18 19:52N 38°01' E 023°32'0 0.0
2017-Nov-18 19:25N 38°01' E 023°32'0 0.0
2017-Nov-18 18:49N 38°01' E 023°32'0 0.0
2017-Nov-18 18:13N 38°01' E 023°32'0 0.1
2017-Nov-18 17:52N 38°01' E 023°32'0 0.1
2017-Nov-18 17:19N 38°01' E 023°32'0 0.0
2017-Nov-18 16:58N 38°01' E 023°32'0 0.0
2017-Nov-18 16:28N 38°01' E 023°32'0 0.0
2017-Nov-18 15:58N 38°01' E 023°32'0 0.0
2017-Nov-18 15:28N 38°01' E 023°32'0 0.0
2017-Nov-18 14:58N 38°01' E 023°32'0 0.0
2017-Nov-18 14:28N 38°01' E 023°32'0 0.0
2017-Nov-18 13:58N 38°01' E 023°32'0 0.0
2017-Nov-18 13:28N 38°01' E 023°32'0 0.1
2017-Nov-18 12:58N 38°01' E 023°32'0 0.0
2017-Nov-18 12:28N 38°01' E 023°32'0 0.0
2017-Nov-18 10:58N 38°01' E 023°32'0 0.0
2017-Nov-18 10:28N 38°01' E 023°32'0 0.0
2017-Nov-18 09:22N 38°01' E 023°32'0 0.0
2017-Nov-18 08:58N 38°01' E 023°32'0 0.0
2017-Nov-18 08:25N 38°01' E 023°32'0 0.0
2017-Nov-18 07:58N 38°01' E 023°32'0 0.0
2017-Nov-18 07:28N 38°01' E 023°32'0 0.0
2017-Nov-18 06:58N 38°01' E 023°32'0 0.0
2017-Nov-18 06:28N 38°01' E 023°32'0 0.0
2017-Nov-18 05:55N 38°01' E 023°32'0 0.0
2017-Nov-18 05:28N 38°01' E 023°32'0 0.0
2017-Nov-18 04:58N 38°01' E 023°32'0 0.1
2017-Nov-18 04:25N 38°01' E 023°32'0 0.1
2017-Nov-18 03:58N 38°01' E 023°32'0 0.0
2017-Nov-18 03:01N 38°01' E 023°32'0 0.1
2017-Nov-18 02:58N 38°01' E 023°32'0 0.0
2017-Nov-18 02:25N 38°01' E 023°32'0 0.0
2017-Nov-18 01:49N 38°01' E 023°32'0 0.0
2017-Nov-18 01:25N 38°01' E 023°32'0 0.0
2017-Nov-18 00:49N 38°01' E 023°32'0 0.0
2017-Nov-18 00:25N 38°01' E 023°32'0 0.0
2017-Nov-17 23:52N 38°01' E 023°32'0 0.0
2017-Nov-17 23:28N 38°01' E 023°32'0 0.0
2017-Nov-17 22:58N 38°01' E 023°32'0 0.0
2017-Nov-17 22:28N 38°01' E 023°32'0 0.0
2017-Nov-17 21:58N 38°01' E 023°32'0 0.0
2017-Nov-17 21:28N 38°01' E 023°32'0 0.0
2017-Nov-17 20:58N 38°01' E 023°32'0 0.2
2017-Nov-17 20:29N 38°01' E 023°33'2 0.3
2017-Nov-17 10:37N 38°02' E 023°36'0 0.0
2017-Nov-17 10:25N 38°02' E 023°36'0 0.0
2017-Nov-17 09:49N 38°02' E 023°36'0 0.0
2017-Nov-16 22:34N 38°02' E 023°35'0 3.1
2017-Nov-16 22:30N 38°01' E 023°35'1 2.4
2017-Nov-16 22:00N 38°01' E 023°34'2 4.5
2017-Nov-16 21:30N 38°02' E 023°31'0 0.3
2017-Nov-16 20:55N 38°02' E 023°32'0 0.0
2017-Nov-16 20:25N 38°02' E 023°32'0 0.2
2017-Nov-16 19:58N 38°02' E 023°32'0 0.1
2017-Nov-16 19:19N 38°02' E 023°32'0 0.1
2017-Nov-16 18:52N 38°02' E 023°31'0 0.0
2017-Nov-16 18:28N 38°02' E 023°31'0 0.1
2017-Nov-16 17:58N 38°02' E 023°31'0 0.0
2017-Nov-16 17:25N 38°02' E 023°31'0 0.0
2017-Nov-16 16:58N 38°02' E 023°31'0 0.0
2017-Nov-16 16:28N 38°02' E 023°31'0 0.0
2017-Nov-16 15:58N 38°02' E 023°31'0 0.0
2017-Nov-16 15:28N 38°02' E 023°32'0 0.7
2017-Nov-16 15:01N 38°02' E 023°31'1 0.1
2017-Nov-16 10:21N 38°02' E 023°31'0 0.0
2017-Nov-16 09:52N 38°02' E 023°31'0 1.0
2017-Nov-16 09:30N 38°02' E 023°30'3 6.3
2017-Nov-16 09:00N 37°59' E 023°33'4 7.7
2017-Nov-16 08:31N 37°56' E 023°36'2 4.5
2017-Nov-16 08:01N 37°54' E 023°37'5 9.9
2017-Nov-16 07:31N 37°50' E 023°40'510.7
2017-Nov-16 07:00N 37°45' E 023°43'510.7
2017-Nov-16 06:31N 37°40' E 023°46'  
2017-Nov-13 01:51N 38°02' E 023°36'0 0.0
2017-Nov-13 01:27N 38°02' E 023°36'0 0.0
2017-Nov-13 00:57N 38°02' E 023°36'0 0.0
2017-Nov-13 00:24N 38°02' E 023°36'0 0.0
2017-Nov-12 23:57N 38°02' E 023°36'0 0.0
2017-Nov-12 23:30N 38°02' E 023°36'0 0.0
2017-Nov-12 22:51N 38°02' E 023°36'0 0.0
2017-Nov-12 22:27N 38°02' E 023°36'0 0.0
2017-Nov-12 21:57N 38°02' E 023°36'0 0.0
2017-Nov-12 21:24N 38°02' E 023°36'0 0.0
2017-Nov-12 21:00N 38°02' E 023°36'0 0.0
2017-Nov-12 20:18N 38°02' E 023°36'0 0.0
2017-Nov-12 19:57N 38°02' E 023°36'0 0.0
2017-Nov-12 19:18N 38°02' E 023°36'0 0.0
2017-Nov-12 18:42N 38°02' E 023°36'0 0.0
2017-Nov-12 18:27N 38°02' E 023°36'0 0.0
2017-Nov-12 18:00N 38°02' E 023°36'0 0.0
2017-Nov-12 17:30N 38°02' E 023°36'0 0.0
2017-Nov-12 17:00N 38°02' E 023°36'0 0.0
2017-Nov-12 16:30N 38°02' E 023°36'0 0.0
2017-Nov-12 15:57N 38°02' E 023°36'0 0.0
2017-Nov-12 15:30N 38°02' E 023°36'0 0.0
2017-Nov-12 15:00N 38°02' E 023°36'0 0.0
2017-Nov-12 14:30N 38°02' E 023°36'0 0.0
2017-Nov-12 13:58N 38°02' E 023°36'0 0.0
2017-Nov-12 13:30N 38°02' E 023°36'0 0.0
2017-Nov-12 13:00N 38°02' E 023°36'0 0.0
2017-Nov-12 12:30N 38°02' E 023°36'0 0.0
2017-Nov-12 12:00N 38°02' E 023°36'0 0.0
2017-Nov-12 11:30N 38°02' E 023°36'0 0.0
2017-Nov-12 11:00N 38°02' E 023°36'0 0.0
2017-Nov-12 10:30N 38°02' E 023°36'0 0.0
2017-Nov-12 10:00N 38°02' E 023°36'0 0.0
2017-Nov-12 09:30N 38°02' E 023°36'0 0.0
2017-Nov-12 09:00N 38°02' E 023°36'0 0.0
2017-Nov-12 08:30N 38°02' E 023°36'1 2.8
2017-Nov-12 08:00N 38°02' E 023°34'1 2.2
2017-Nov-12 07:29N 38°02' E 023°33'0 0.1
2017-Nov-12 06:59N 38°02' E 023°33'0 0.2
2017-Nov-12 06:29N 38°01' E 023°33'0 0.0
2017-Nov-12 05:59N 38°01' E 023°33'0 0.0
2017-Nov-12 05:26N 38°01' E 023°33'0 0.1
2017-Nov-12 04:59N 38°01' E 023°33'0 0.0
2017-Nov-12 04:29N 38°01' E 023°33'0 0.0
2017-Nov-12 03:59N 38°01' E 023°33'0 0.0
2017-Nov-12 03:26N 38°01' E 023°33'0 0.0
2017-Nov-12 02:59N 38°01' E 023°33'0 0.0
2017-Nov-12 02:29N 38°01' E 023°33'0 0.0
2017-Nov-12 01:59N 38°01' E 023°33'0 0.0
2017-Nov-12 01:29N 38°01' E 023°33'0 0.0
2017-Nov-12 00:59N 38°01' E 023°33'0 0.0
2017-Nov-12 00:29N 38°01' E 023°33'0 0.0
2017-Nov-11 23:56N 38°01' E 023°33'0 0.0
2017-Nov-11 23:29N 38°01' E 023°33'0 0.0
2017-Nov-11 22:59N 38°01' E 023°33'0 0.1
2017-Nov-11 22:29N 38°01' E 023°33'0 0.0
2017-Nov-11 21:59N 38°01' E 023°33'0 0.0
2017-Nov-11 21:29N 38°01' E 023°33'0 0.0
2017-Nov-11 20:59N 38°01' E 023°33'0 0.0
2017-Nov-11 20:29N 38°01' E 023°33'0 0.0
2017-Nov-11 19:59N 38°01' E 023°33'0 0.0
2017-Nov-11 19:29N 38°01' E 023°33'0 0.2
2017-Nov-11 18:59N 38°02' E 023°33'0 0.0
2017-Nov-11 18:29N 38°02' E 023°33'0 0.0
2017-Nov-11 17:59N 38°02' E 023°33'0 0.0
2017-Nov-11 17:26N 38°02' E 023°33'0 0.0
2017-Nov-11 16:59N 38°02' E 023°33'0 0.0
2017-Nov-11 16:23N 38°02' E 023°33'0 0.0
2017-Nov-11 15:59N 38°02' E 023°33'0 0.0
2017-Nov-11 15:29N 38°02' E 023°33'0 0.0
2017-Nov-11 14:59N 38°02' E 023°33'0 0.0
2017-Nov-11 14:29N 38°02' E 023°33'0 0.0
2017-Nov-11 13:59N 38°02' E 023°33'0 0.0
2017-Nov-11 13:29N 38°02' E 023°33'0 0.0
2017-Nov-11 12:59N 38°02' E 023°33'0 0.0
2017-Nov-11 12:29N 38°02' E 023°33'0 0.0
2017-Nov-11 11:59N 38°02' E 023°33'0 0.0
2017-Nov-11 11:29N 38°02' E 023°33'0 0.1
2017-Nov-11 10:59N 38°02' E 023°33'0 0.1
2017-Nov-11 10:29N 38°02' E 023°33'0 0.0
2017-Nov-11 09:59N 38°01' E 023°33'0 0.1
2017-Nov-11 09:30N 38°01' E 023°33'0 0.0
2017-Nov-11 09:00N 38°01' E 023°33'0 0.0
2017-Nov-11 08:30N 38°02' E 023°33'0 0.1
2017-Nov-11 08:00N 38°01' E 023°33'0 0.1
2017-Nov-11 07:31N 38°01' E 023°33'0 0.1
2017-Nov-11 07:00N 38°02' E 023°33'3 5.9
2017-Nov-11 06:30N 37°59' E 023°33'4 8.3
2017-Nov-11 06:00N 37°56' E 023°37'3 6.1
2017-Nov-11 05:30N 37°53' E 023°38'510.7
2017-Nov-11 05:00N 37°48' E 023°41'510.6
2017-Nov-11 04:30N 37°43' E 023°44'510.5
2017-Nov-11 04:00N 37°38' E 023°45'  
Track history (hours):
 
Tides and Currents Weather Stations Pressure Air Temp Water Temp Dewpoint Dewpoint Depression Visibility Wind Speed Wind Dir Waves Ship Positions

Ek0 3

Last reported at 2017-Nov-19 11:30 UTC. Time now 2017-Nov-21 21:16 UTC.
Position N 37°40' E 023°42'.

Length 88 m; draft 5.6 m.

Type: Ship. MMSI: 240913000.

Date/timePositionNaut miles runAvg speedWind from/ knotsBaromVisibWave heightAir tempDewpointWater temp
2017-Nov-19 11:30N 37°40' E 023°42'610.3
2017-Nov-19 10:56N 37°46' E 023°39'510.1
2017-Nov-19 10:29N 37°50' E 023°37'6 9.0
2017-Nov-19 09:50N 37°56' E 023°36'2 7.3
2017-Nov-19 09:30N 37°57' E 023°34'4 8.1
2017-Nov-19 08:59N 38°01' E 023°33'0 0.3
2017-Nov-19 08:28N 38°01' E 023°32'0 0.2
2017-Nov-19 07:58N 38°01' E 023°32'0 0.0
2017-Nov-19 07:28N 38°01' E 023°32'0 0.0
2017-Nov-19 06:46N 38°01' E 023°32'0 0.0
2017-Nov-19 06:25N 38°01' E 023°32'0 0.0
2017-Nov-19 05:52N 38°01' E 023°32'0 0.0
2017-Nov-19 05:28N 38°01' E 023°32'0 0.0
2017-Nov-19 04:49N 38°01' E 023°32'0 0.0
2017-Nov-19 04:28N 38°01' E 023°32'0 0.0
2017-Nov-19 03:58N 38°01' E 023°32'0 0.0
2017-Nov-19 02:49N 38°01' E 023°32'0 0.0
2017-Nov-19 01:49N 38°01' E 023°32'0 0.0
2017-Nov-19 01:25N 38°01' E 023°32'0 0.0
2017-Nov-19 00:01N 38°01' E 023°32'0 0.0
2017-Nov-18 23:52N 38°01' E 023°32'0 0.0
2017-Nov-18 23:13N 38°01' E 023°32'0 0.0
2017-Nov-18 22:28N 38°01' E 023°32'0 0.0
2017-Nov-18 21:58N 38°01' E 023°32'0 0.0
2017-Nov-18 21:28N 38°01' E 023°32'0 0.0
2017-Nov-18 20:52N 38°01' E 023°32'0 0.0
2017-Nov-18 20:19N 38°01' E 023°32'0 0.0
2017-Nov-18 19:52N 38°01' E 023°32'0 0.0
2017-Nov-18 19:25N 38°01' E 023°32'0 0.0
2017-Nov-18 18:49N 38°01' E 023°32'0 0.0
2017-Nov-18 18:13N 38°01' E 023°32'0 0.1
2017-Nov-18 17:52N 38°01' E 023°32'0 0.1
2017-Nov-18 17:19N 38°01' E 023°32'0 0.0
2017-Nov-18 16:58N 38°01' E 023°32'0 0.0
2017-Nov-18 16:28N 38°01' E 023°32'0 0.0
2017-Nov-18 15:58N 38°01' E 023°32'0 0.0
2017-Nov-18 15:28N 38°01' E 023°32'0 0.0
2017-Nov-18 14:58N 38°01' E 023°32'0 0.0
2017-Nov-18 14:28N 38°01' E 023°32'0 0.0
2017-Nov-18 13:58N 38°01' E 023°32'0 0.0
2017-Nov-18 13:28N 38°01' E 023°32'0 0.1
2017-Nov-18 12:58N 38°01' E 023°32'0 0.0
2017-Nov-18 12:28N 38°01' E 023°32'0 0.0
2017-Nov-18 10:58N 38°01' E 023°32'0 0.0
2017-Nov-18 10:28N 38°01' E 023°32'0 0.0
2017-Nov-18 09:22N 38°01' E 023°32'0 0.0
2017-Nov-18 08:58N 38°01' E 023°32'0 0.0
2017-Nov-18 08:25N 38°01' E 023°32'0 0.0
2017-Nov-18 07:58N 38°01' E 023°32'0 0.0
2017-Nov-18 07:28N 38°01' E 023°32'0 0.0
2017-Nov-18 06:58N 38°01' E 023°32'0 0.0
2017-Nov-18 06:28N 38°01' E 023°32'0 0.0
2017-Nov-18 05:55N 38°01' E 023°32'0 0.0
2017-Nov-18 05:28N 38°01' E 023°32'0 0.0
2017-Nov-18 04:58N 38°01' E 023°32'0 0.1
2017-Nov-18 04:25N 38°01' E 023°32'0 0.1
2017-Nov-18 03:58N 38°01' E 023°32'0 0.0
2017-Nov-18 03:01N 38°01' E 023°32'0 0.1
2017-Nov-18 02:58N 38°01' E 023°32'0 0.0
2017-Nov-18 02:25N 38°01' E 023°32'0 0.0
2017-Nov-18 01:49N 38°01' E 023°32'0 0.0
2017-Nov-18 01:25N 38°01' E 023°32'0 0.0
2017-Nov-18 00:49N 38°01' E 023°32'0 0.0
2017-Nov-18 00:25N 38°01' E 023°32'0 0.0
2017-Nov-17 23:52N 38°01' E 023°32'0 0.0
2017-Nov-17 23:28N 38°01' E 023°32'0 0.0
2017-Nov-17 22:58N 38°01' E 023°32'0 0.0
2017-Nov-17 22:28N 38°01' E 023°32'0 0.0
2017-Nov-17 21:58N 38°01' E 023°32'0 0.0
2017-Nov-17 21:28N 38°01' E 023°32'0 0.0
2017-Nov-17 20:58N 38°01' E 023°32'0 0.2
2017-Nov-17 20:29N 38°01' E 023°33'2 0.3
2017-Nov-17 10:37N 38°02' E 023°36'0 0.0
2017-Nov-17 10:25N 38°02' E 023°36'0 0.0
2017-Nov-17 09:49N 38°02' E 023°36'0 0.0
2017-Nov-16 22:34N 38°02' E 023°35'0 3.1
2017-Nov-16 22:30N 38°01' E 023°35'1 2.4
2017-Nov-16 22:00N 38°01' E 023°34'2 4.5
2017-Nov-16 21:30N 38°02' E 023°31'0 0.3
2017-Nov-16 20:55N 38°02' E 023°32'0 0.0
2017-Nov-16 20:25N 38°02' E 023°32'0 0.2
2017-Nov-16 19:58N 38°02' E 023°32'0 0.1
2017-Nov-16 19:19N 38°02' E 023°32'0 0.1
2017-Nov-16 18:52N 38°02' E 023°31'0 0.0
2017-Nov-16 18:28N 38°02' E 023°31'0 0.1
2017-Nov-16 17:58N 38°02' E 023°31'0 0.0
2017-Nov-16 17:25N 38°02' E 023°31'0 0.0
2017-Nov-16 16:58N 38°02' E 023°31'0 0.0
2017-Nov-16 16:28N 38°02' E 023°31'0 0.0
2017-Nov-16 15:58N 38°02' E 023°31'0 0.0
2017-Nov-16 15:28N 38°02' E 023°32'0 0.7
2017-Nov-16 15:01N 38°02' E 023°31'1 0.1
2017-Nov-16 10:21N 38°02' E 023°31'0 0.0
2017-Nov-16 09:52N 38°02' E 023°31'0 1.0
2017-Nov-16 09:30N 38°02' E 023°30'3 6.3
2017-Nov-16 09:00N 37°59' E 023°33'4 7.7
2017-Nov-16 08:31N 37°56' E 023°36'2 4.5
2017-Nov-16 08:01N 37°54' E 023°37'5 9.9
2017-Nov-16 07:31N 37°50' E 023°40'510.7
2017-Nov-16 07:00N 37°45' E 023°43'510.7
2017-Nov-16 06:31N 37°40' E 023°46'  
2017-Nov-13 01:51N 38°02' E 023°36'0 0.0
2017-Nov-13 01:27N 38°02' E 023°36'0 0.0
2017-Nov-13 00:57N 38°02' E 023°36'0 0.0
2017-Nov-13 00:24N 38°02' E 023°36'0 0.0
2017-Nov-12 23:57N 38°02' E 023°36'0 0.0
2017-Nov-12 23:30N 38°02' E 023°36'0 0.0
2017-Nov-12 22:51N 38°02' E 023°36'0 0.0
2017-Nov-12 22:27N 38°02' E 023°36'0 0.0
2017-Nov-12 21:57N 38°02' E 023°36'0 0.0
2017-Nov-12 21:24N 38°02' E 023°36'0 0.0
2017-Nov-12 21:00N 38°02' E 023°36'0 0.0
2017-Nov-12 20:18N 38°02' E 023°36'0 0.0
2017-Nov-12 19:57N 38°02' E 023°36'0 0.0
2017-Nov-12 19:18N 38°02' E 023°36'0 0.0
2017-Nov-12 18:42N 38°02' E 023°36'0 0.0
2017-Nov-12 18:27N 38°02' E 023°36'0 0.0
2017-Nov-12 18:00N 38°02' E 023°36'0 0.0
2017-Nov-12 17:30N 38°02' E 023°36'0 0.0
2017-Nov-12 17:00N 38°02' E 023°36'0 0.0
2017-Nov-12 16:30N 38°02' E 023°36'0 0.0
2017-Nov-12 15:57N 38°02' E 023°36'0 0.0
2017-Nov-12 15:30N 38°02' E 023°36'0 0.0
2017-Nov-12 15:00N 38°02' E 023°36'0 0.0
2017-Nov-12 14:30N 38°02' E 023°36'0 0.0
2017-Nov-12 13:58N 38°02' E 023°36'0 0.0
2017-Nov-12 13:30N 38°02' E 023°36'0 0.0
2017-Nov-12 13:00N 38°02' E 023°36'0 0.0
2017-Nov-12 12:30N 38°02' E 023°36'0 0.0
2017-Nov-12 12:00N 38°02' E 023°36'0 0.0
2017-Nov-12 11:30N 38°02' E 023°36'0 0.0
2017-Nov-12 11:00N 38°02' E 023°36'0 0.0
2017-Nov-12 10:30N 38°02' E 023°36'0 0.0
2017-Nov-12 10:00N 38°02' E 023°36'0 0.0
2017-Nov-12 09:30N 38°02' E 023°36'0 0.0
2017-Nov-12 09:00N 38°02' E 023°36'0 0.0
2017-Nov-12 08:30N 38°02' E 023°36'1 2.8
2017-Nov-12 08:00N 38°02' E 023°34'1 2.2
2017-Nov-12 07:29N 38°02' E 023°33'0 0.1
2017-Nov-12 06:59N 38°02' E 023°33'0 0.2
2017-Nov-12 06:29N 38°01' E 023°33'0 0.0
2017-Nov-12 05:59N 38°01' E 023°33'0 0.0
2017-Nov-12 05:26N 38°01' E 023°33'0 0.1
2017-Nov-12 04:59N 38°01' E 023°33'0 0.0
2017-Nov-12 04:29N 38°01' E 023°33'0 0.0
2017-Nov-12 03:59N 38°01' E 023°33'0 0.0
2017-Nov-12 03:26N 38°01' E 023°33'0 0.0
2017-Nov-12 02:59N 38°01' E 023°33'0 0.0
2017-Nov-12 02:29N 38°01' E 023°33'0 0.0
2017-Nov-12 01:59N 38°01' E 023°33'0 0.0
2017-Nov-12 01:29N 38°01' E 023°33'0 0.0
2017-Nov-12 00:59N 38°01' E 023°33'0 0.0
2017-Nov-12 00:29N 38°01' E 023°33'0 0.0
2017-Nov-11 23:56N 38°01' E 023°33'0 0.0
2017-Nov-11 23:29N 38°01' E 023°33'0 0.0
2017-Nov-11 22:59N 38°01' E 023°33'0 0.1
2017-Nov-11 22:29N 38°01' E 023°33'0 0.0
2017-Nov-11 21:59N 38°01' E 023°33'0 0.0
2017-Nov-11 21:29N 38°01' E 023°33'0 0.0
2017-Nov-11 20:59N 38°01' E 023°33'0 0.0
2017-Nov-11 20:29N 38°01' E 023°33'0 0.0
2017-Nov-11 19:59N 38°01' E 023°33'0 0.0
2017-Nov-11 19:29N 38°01' E 023°33'0 0.2
2017-Nov-11 18:59N 38°02' E 023°33'0 0.0
2017-Nov-11 18:29N 38°02' E 023°33'0 0.0
2017-Nov-11 17:59N 38°02' E 023°33'0 0.0
2017-Nov-11 17:26N 38°02' E 023°33'0 0.0
2017-Nov-11 16:59N 38°02' E 023°33'0 0.0
2017-Nov-11 16:23N 38°02' E 023°33'0 0.0
2017-Nov-11 15:59N 38°02' E 023°33'0 0.0
2017-Nov-11 15:29N 38°02' E 023°33'0 0.0
2017-Nov-11 14:59N 38°02' E 023°33'0 0.0
2017-Nov-11 14:29N 38°02' E 023°33'0 0.0
2017-Nov-11 13:59N 38°02' E 023°33'0 0.0
2017-Nov-11 13:29N 38°02' E 023°33'0 0.0
2017-Nov-11 12:59N 38°02' E 023°33'0 0.0
2017-Nov-11 12:29N 38°02' E 023°33'0 0.0
2017-Nov-11 11:59N 38°02' E 023°33'0 0.0
2017-Nov-11 11:29N 38°02' E 023°33'0 0.1
2017-Nov-11 10:59N 38°02' E 023°33'0 0.1
2017-Nov-11 10:29N 38°02' E 023°33'0 0.0
2017-Nov-11 09:59N 38°01' E 023°33'0 0.1
2017-Nov-11 09:30N 38°01' E 023°33'0 0.0
2017-Nov-11 09:00N 38°01' E 023°33'0 0.0
2017-Nov-11 08:30N 38°02' E 023°33'0 0.1
2017-Nov-11 08:00N 38°01' E 023°33'0 0.1
2017-Nov-11 07:31N 38°01' E 023°33'0 0.1
2017-Nov-11 07:00N 38°02' E 023°33'3 5.9
2017-Nov-11 06:30N 37°59' E 023°33'4 8.3
2017-Nov-11 06:00N 37°56' E 023°37'3 6.1
2017-Nov-11 05:30N 37°53' E 023°38'510.7
2017-Nov-11 05:00N 37°48' E 023°41'510.6
2017-Nov-11 04:30N 37°43' E 023°44'510.5
2017-Nov-11 04:00N 37°38' E 023°45'  

Dump ship's entire track history